Regan, North Dakota
Current Conditions -  °F | °C
As of 11:52 AM on Thursday 29 Jan 2015 (Local Time) from KBIS Reporting Station
Overcast Overcast  
Wind Chill: 21°   Ceiling: 2100
Heat Index: 29°   Visibility: 10mi
Dew Point: 20°   Wind: 8mph
Humidity: 69%   Direction: 340°NNW
Pressure: 30.5"   Gusts: NA
Location:  47.16°N, 100.53°W
Report Text: KBIS 291752Z 34007KT 10SM OVC021 M02/M07 A3050 RMK AO2 SLP352 T10171067 11017 21028 51015
Loading
Personal Weather Stations






























Interactive Weather Map New forecast layout! Learn more

10-Day Weather Forecast

Advertisements
Track Severe Weather on mobile